Date,TemperatureHighF,TemperatureAvgF,TemperatureLowF,DewpointHighF,DewpointAvgF,DewpointLowF,HumidityHigh,HumidityAvg,HumidityLow,PressureMaxIn,PressureMinIn,WindSpeedMaxMPH,WindSpeedAvgMPH,GustSpeedMaxMPH,PrecipitationSumIn
2013-1-1,66,55,44,58,51,43,97,88,73,30.16,29.90,2,0,0,0.00
2013-1-2,63,58,51,59,56,50,96,92,85,30.09,29.85,2,0,0,0.00
2013-1-3,52,50,46,51,49,44,98,97,95,30.23,30.04,1,0,0,0.00
2013-1-4,55,44,35,44,39,34,98,85,55,30.31,30.21,1,0,0,0.00
2013-1-5,56,43,30,42,35,29,97,76,44,30.37,30.25,1,0,0,0.00
2013-1-6,54,48,45,49,46,42,97,90,75,30.26,30.06,0,0,0,0.00
2013-1-7,57,48,40,44,39,37,95,75,51,30.35,30.14,3,0,0,0.00
2013-1-8,67,53,43,55,47,38,96,81,65,30.34,30.26,2,0,0,0.00
2013-1-9,72,61,50,65,58,49,97,89,76,30.35,30.26,1,0,0,0.00
2013-1-10,71,60,52,63,57,51,100,92,67,30.40,30.32,1,0,0,0.00
2013-1-11,76,63,55,68,60,54,98,91,72,30.32,30.13,2,0,0,0.00
2013-1-12,81,67,57,68,62,56,99,87,60,30.16,30.06,1,0,0,0.00
2013-1-13,77,63,53,67,60,52,100,89,68,30.14,30.03,2,0,0,0.00
2013-1-14,78,66,56,69,62,55,98,89,66,30.15,30.06,3,0,0,0.00
2013-1-15,79,65,56,69,61,55,98,88,62,30.11,30.00,2,0,0,0.00
2013-1-16,78,68,60,66,63,59,98,87,64,30.02,29.90,4,1,0,0.00
2013-1-17,77,61,46,65,57,41,98,87,64,30.00,29.69,6,1,0,0.00
2013-1-18,54,46,37,43,35,29,94,68,39,30.45,30.00,5,2,0,0.00
2013-1-19,64,47,35,50,39,30,94,74,53,30.43,30.19,1,0,0,0.00
2013-1-20,69,51,39,50,41,34,97,73,29,30.19,30.00,4,0,0,0.00
2013-1-21,66,50,33,45,38,32,96,69,36,30.06,29.92,2,0,0,0.00
2013-1-22,56,46,34,39,30,27,85,56,38,30.23,30.00,4,1,0,0.00
2013-1-23,55,40,29,35,29,25,90,68,38,30.34,30.14,3,0,0,0.00
2013-1-24,67,50,36,49,37,20,90,64,38,30.42,30.06,5,2,0,0.00
2013-1-25,50,39,29,39,27,15,70,63,56,30.42,30.11,1,0,0,0.00
2013-1-26,61,46,37,45,37,32,88,71,45,30.27,30.08,3,0,0,0.00
2013-1-27,55,44,35,40,36,30,90,76,53,30.46,30.27,2,0,0,0.00
2013-1-28,67,51,41,56,46,36,95,82,67,30.42,30.24,1,0,0,0.00
2013-1-29,76,60,47,67,56,46,98,89,68,30.24,30.08,4,0,0,0.00
2013-1-30,75,68,58,68,65,57,98,89,75,30.07,29.58,8,3,0,0.00
2013-1-31,62,50,37,61,34,28,96,56,37,30.14,29.67,5,2,0,0.00
2013-2-1,59,45,32,39,30,22,82,60,28,30.32,30.11,6,1,0,0.00
2013-2-2,60,42,28,40,31,20,88,67,43,30.34,30.06,3,0,0,0.00
2013-2-3,61,48,35,39,36,32,90,68,41,30.06,29.88,5,1,0,0.00
2013-2-4,57,44,30,41,34,28,95,72,40,30.11,30.00,1,0,0,0.00
2013-2-5,70,52,34,53,44,33,97,78,45,30.03,29.90,3,1,0,0.00
2013-2-6,75,57,43,56,48,42,97,77,38,30.14,29.97,2,0,0,0.00
2013-2-7,59,52,45,57,51,44,100,96,88,30.12,29.67,3,0,0,0.00
2013-2-8,65,54,47,54,50,46,98,87,66,30.02,29.69,4,1,0,0.00
2013-2-9,62,49,36,48,37,32,96,68,33,30.30,30.02,3,1,0,0.00
2013-2-10,67,51,34,55,45,32,96,82,61,30.36,30.15,2,0,0,0.00
2013-2-11,65,61,54,64,60,52,98,97,93,30.18,30.01,2,0,0,0.00
2013-2-12,62,57,51,58,55,50,98,94,74,30.09,29.85,3,0,0,0.00
2013-2-13,72,57,50,67,54,49,99,89,62,29.86,29.65,4,1,0,0.00
2013-2-14,55,49,43,50,44,41,96,82,63,30.03,29.82,1,0,0,0.00
2013-2-15,65,48,35,47,41,34,97,79,44,30.07,29.93,2,0,0,0.00
2013-2-16,54,42,36,45,38,31,97,89,67,30.00,29.80,6,1,0,0.00
2013-2-17,49,37,29,32,23,19,85,61,31,30.27,30.00,5,1,0,0.00
2013-2-18,57,39,25,31,28,23,94,68,34,30.39,30.23,3,0,0,0.00
2013-2-19,63,48,35,56,46,31,97,92,67,30.23,29.94,4,0,0,0.00
2013-2-20,61,48,32,48,38,31,98,72,37,30.12,30.00,2,0,0,0.00
2013-2-21,68,49,34,47,41,33,96,76,42,30.15,30.03,3,0,0,0.00
2013-2-22,58,51,46,57,48,44,97,90,77,30.15,30.01,3,0,0,0.00
2013-2-23,61,49,44,61,48,43,99,98,97,30.03,29.74,3,0,0,0.00
2013-2-24,68,55,47,57,50,46,98,86,48,29.96,29.74,2,0,0,0.00
2013-2-25,50,46,42,47,44,40,97,94,82,30.05,29.91,4,0,0,0.00
2013-2-26,73,61,46,69,58,45,98,91,81,29.92,29.52,7,1,0,0.00
2013-2-27,62,53,47,55,45,40,92,75,56,29.86,29.65,3,1,0,0.00
2013-2-28,63,52,42,43,40,36,93,66,42,29.86,29.75,5,1,0,0.00
2013-3-1,55,46,39,40,36,32,87,66,50,29.92,29.82,3,1,0,0.00
2013-3-2,54,43,34,38,35,31,93,77,50,29.90,29.81,4,1,0,0.00
2013-3-3,48,39,31,35,31,27,93,72,50,29.98,29.86,4,1,0,0.00
2013-3-4,57,42,27,37,28,24,91,64,32,30.14,29.98,4,1,0,0.00
2013-3-5,66,53,38,57,44,36,95,75,43,30.09,29.68,4,1,0,0.00
2013-3-6,58,48,40,56,34,29,93,61,43,30.04,29.66,8,4,0,0.00
2013-3-7,62,47,32,39,34,29,89,65,41,30.19,30.04,4,1,0,0.00
2013-3-8,61,47,35,36,33,29,90,61,32,30.25,30.11,5,1,0,0.00
2013-3-9,65,48,34,45,37,30,92,68,41,30.28,30.18,3,0,0,0.00
2013-3-10,68,52,36,50,42,35,96,71,44,30.24,30.15,3,0,0,0.00
2013-3-11,71,59,45,61,52,39,96,80,61,30.17,29.86,4,1,0,0.00
2013-3-12,73,64,52,66,60,49,97,86,50,29.91,29.76,4,1,0,0.00
2013-3-13,68,55,42,49,38,30,93,60,30,30.09,29.91,5,1,0,0.00
2013-3-14,57,47,36,33,28,25,80,50,33,30.27,30.06,4,1,0,0.00
2013-3-15,70,50,32,48,37,30,93,66,35,30.19,29.98,3,0,0,0.00
2013-3-16,81,65,52,53,48,44,82,58,35,30.00,29.81,4,1,0,0.00
2013-3-17,79,66,55,60,54,47,88,66,48,29.98,29.89,3,1,0,0.00
2013-3-18,68,62,57,61,58,54,97,88,74,30.03,29.80,5,0,0,0.00
2013-3-19,77,62,54,61,52,36,98,75,32,29.96,29.77,4,1,0,0.00
2013-3-20,64,54,44,41,34,24,85,49,27,30.06,29.79,3,0,0,0.00
2013-3-21,60,48,38,39,30,21,93,55,24,29.91,29.75,5,2,0,0.00
2013-3-22,57,46,36,41,29,21,79,53,36,30.05,29.91,2,0,0,0.00
2013-3-23,56,48,42,55,45,39,96,88,66,30.01,29.83,3,0,0,0.00
2013-3-24,59,51,46,58,50,45,98,97,95,29.85,29.44,4,1,0,0.00
2013-3-25,57,49,43,47,37,28,98,67,37,29.93,29.54,7,3,0,0.00
2013-3-26,53,43,33,33,30,27,80,61,44,30.14,29.93,6,2,0,0.00
2013-3-27,61,46,31,35,32,28,92,63,35,30.23,30.12,4,1,0,0.00
2013-3-28,62,47,31,36,33,29,93,64,33,30.27,30.14,4,1,0,0.00
2013-3-29,68,50,34,42,36,32,93,64,27,30.31,30.16,2,0,0,0.00
2013-3-30,75,59,47,52,48,41,94,69,40,30.21,30.01,3,0,0,0.00
2013-3-31,76,64,56,62,56,-100,96,81,61,30.05,29.84,5,1,0,0.00
2013-4-1,77,65,58,65,60,55,98,85,59,29.90,29.81,4,1,0,0.00
2013-4-2,73,58,47,55,49,46,97,77,44,30.09,29.90,3,0,0,0.00
2013-4-3,68,56,46,56,49,45,97,78,53,30.20,30.03,3,0,0,0.00
2013-4-4,56,53,49,55,50,45,97,90,72,30.20,29.80,2,0,0,0.00
2013-4-5,60,50,43,51,47,42,97,90,73,29.99,29.82,3,1,0,0.00
2013-4-6,72,56,41,52,46,40,97,74,38,30.19,29.98,4,0,0,0.00
2013-4-7,75,61,47,62,55,46,97,82,58,30.21,30.09,2,0,0,0.00
2013-4-8,80,65,50,65,58,49,97,81,53,30.15,30.06,2,0,0,0.00
2013-4-9,84,68,55,68,62,54,98,81,49,30.18,30.08,1,0,0,0.00
2013-4-10,82,68,56,67,62,55,98,81,48,30.12,29.97,2,0,0,0.00
2013-4-11,81,70,59,73,66,58,98,90,75,29.98,29.79,3,1,0,0.00
2013-4-12,80,72,68,74,70,65,98,95,82,29.81,29.66,3,0,0,0.00
2013-4-13,79,64,50,66,55,49,100,76,40,29.97,29.78,2,0,0,0.00
2013-4-14,71,62,51,64,58,50,97,89,72,30.05,29.90,0,0,0,0.00
2013-4-15,71,65,61,68,64,60,98,96,89,30.11,29.84,2,0,0,0.00
2013-4-16,81,67,57,69,62,56,98,86,61,30.20,30.11,1,0,0,0.00
2013-4-17,83,68,58,69,63,57,98,85,59,30.19,30.08,1,0,0,0.00
2013-4-18,81,70,61,71,65,60,98,87,65,30.10,29.98,3,0,0,0.00
2013-4-19,81,72,67,74,69,64,98,92,78,29.98,29.80,5,1,0,0.00
2013-4-20,65,55,47,64,51,45,98,87,64,30.20,29.89,2,0,0,0.00
2013-4-21,70,56,43,56,49,42,97,79,57,30.29,30.19,2,0,0,0.00
2013-4-22,69,58,49,55,48,39,82,70,57,30.26,30.09,3,1,0,0.00
2013-4-23,66,58,51,58,53,48,94,84,73,30.17,30.09,1,0,0,0.00
2013-4-24,80,63,47,64,56,46,97,81,52,30.14,30.01,1,0,0,0.00
2013-4-25,83,68,59,69,64,58,98,90,62,30.17,30.03,1,0,0,0.00
2013-4-26,77,66,56,62,56,47,98,75,40,30.33,30.17,2,0,0,0.00
2013-4-27,75,63,53,64,55,51,97,78,46,30.31,30.18,1,0,0,0.00
2013-4-28,75,65,55,68,60,-100,97,88,74,30.19,29.98,2,0,0,0.00
2013-4-29,81,68,63,71,66,62,98,94,72,30.01,29.90,1,0,0,0.00
2013-4-30,76,66,61,69,64,60,98,96,79,30.04,29.91,1,0,0,0.00
2013-5-1,71,64,59,64,61,58,98,91,74,30.14,30.03,2,0,0,0.00
2013-5-2,73,67,64,68,64,60,97,90,79,30.12,30.06,2,0,0,0.00
2013-5-3,69,63,59,65,59,52,97,88,69,30.08,29.97,2,0,0,0.00
2013-5-4,67,60,54,63,58,52,97,90,72,29.97,29.86,1,0,0,0.00
2013-5-5,68,64,61,67,63,60,98,97,91,29.86,29.74,1,0,0,0.00
2013-5-6,74,64,55,62,57,52,98,82,50,29.88,29.78,1,0,0,0.00
2013-5-7,73,59,51,63,56,50,97,91,61,29.93,29.85,1,0,0,0.00
2013-5-8,80,61,49,64,56,48,98,84,56,30.00,29.92,1,0,0,0.00
2013-5-9,85,78,67,68,65,62,85,66,51,30.04,29.98,1,0,0,0.00
2013-5-10,87,71,59,69,62,-100,97,77,50,30.05,29.95,2,0,0,0.00
2013-5-11,83,74,67,71,68,64,98,83,60,29.98,29.83,1,0,0,0.00
2013-5-12,82,73,62,70,63,-100,96,74,46,29.96,29.80,1,0,0,0.00
2013-5-13,74,63,54,57,48,45,88,60,38,30.10,29.95,3,1,0,0.00
2013-5-14,77,61,46,56,51,45,96,72,38,30.22,30.09,2,0,0,0.00
2013-5-15,88,69,53,69,60,52,97,75,47,30.14,29.95,2,0,0,0.00
2013-5-16,84,68,61,71,43,-100,92,80,62,30.03,29.95,1,0,0,0.00
2013-5-17,89,74,62,72,61,-100,98,79,51,30.06,29.98,1,0,0,0.00
2013-5-18,85,73,64,73,68,63,97,85,64,30.09,30.01,1,0,0,0.00
2013-5-19,81,74,68,74,70,67,98,89,76,30.08,30.00,1,0,0,0.00
2013-5-20,81,72,67,75,71,66,98,97,80,30.06,29.98,1,0,0,0.00
2013-5-21,78,71,67,75,70,66,99,97,86,30.03,29.93,1,0,0,0.00
2013-5-22,85,74,65,74,69,64,99,86,63,29.97,29.88,1,0,0,0.00
2013-5-23,86,76,67,74,70,66,98,84,63,29.91,29.78,1,0,0,0.00
2013-5-24,83,73,61,69,61,45,95,68,38,30.12,29.81,3,1,0,0.00
2013-5-25,79,64,51,58,50,46,93,64,34,30.26,30.11,2,0,0,0.00
2013-5-26,84,68,53,66,59,52,97,77,49,30.22,30.09,1,0,0,0.00
2013-5-27,85,71,58,70,64,57,97,80,58,30.20,30.11,1,0,0,0.00
2013-5-28,84,72,62,72,66,61,97,81,55,30.19,30.14,1,0,0,0.00
2013-5-29,84,72,61,71,66,60,98,81,57,30.20,30.11,1,0,0,0.00
2013-5-30,87,74,63,75,69,62,98,85,61,30.21,30.12,1,0,0,0.00
2013-5-31,86,76,67,75,71,66,98,86,66,30.16,30.08,1,0,0,0.00
2013-6-1,86,76,66,74,70,65,98,84,65,30.10,30.02,1,0,0,0.00
2013-6-2,86,76,67,76,71,-100,98,88,71,30.05,29.89,1,0,0,0.00
2013-6-3,81,75,74,78,74,71,98,95,90,29.90,29.83,1,0,0,0.00
2013-6-4,83,77,74,78,75,73,98,94,84,29.98,29.90,1,0,0,0.00
2013-6-5,81,74,71,78,73,70,99,97,89,30.00,29.91,1,0,0,0.00
2013-6-6,79,74,71,76,72,70,99,96,88,29.92,29.64,1,0,0,0.00
2013-6-7,85,76,72,77,74,71,98,93,75,29.81,29.43,3,0,0,0.00
2013-6-8,88,78,72,79,75,71,98,89,66,30.04,29.80,1,0,0,0.00
2013-6-9,88,78,74,80,75,73,98,91,77,30.08,30.00,1,0,0,0.00
2013-6-10,87,78,69,80,75,68,98,92,80,30.06,29.92,1,0,0,0.00
2013-6-11,88,77,70,79,74,69,98,92,74,29.99,29.88,1,0,0,0.00
2013-6-12,93,82,72,80,76,71,99,85,61,29.95,29.85,1,0,0,0.00
2013-6-20,82,80,78,75,73,72,83,81,78,30.09,30.07,2,1,0,0.00
2013-6-22,86,81,76,76,75,74,94,83,70,30.12,30.04,1,0,0,0.00
2013-6-23,88,79,72,79,75,71,98,89,68,30.14,30.06,1,0,0,0.00
2013-6-24,86,77,72,80,75,71,98,94,80,30.17,30.09,0,0,0,0.00
2013-6-25,88,78,72,80,76,71,98,91,71,30.11,30.00,1,0,0,0.00
2013-6-26,90,78,71,81,74,70,98,90,72,30.03,29.92,2,0,0,0.00
2013-6-27,92,78,73,82,76,72,98,93,72,29.95,29.75,1,0,0,0.00
2013-6-28,92,82,73,84,78,72,98,88,74,29.78,29.61,1,0,0,0.00
2013-6-29,87,79,72,79,75,71,97,89,75,29.72,29.63,1,0,0,0.00
2013-6-30,83,75,70,79,74,69,98,96,85,29.80,29.68,2,0,0,0.00
2013-7-1,87,77,71,80,75,70,99,95,80,29.95,29.77,2,0,0,0.00
2013-7-2,78,75,74,77,75,73,99,98,98,30.09,29.95,1,0,0,0.00
2013-7-3,84,78,73,81,76,73,99,95,82,30.16,30.06,1,0,0,0.00
2013-7-4,87,80,74,80,77,73,98,92,79,30.17,30.11,1,0,0,0.00
2013-7-5,89,79,74,81,77,73,98,94,74,30.18,30.10,1,0,0,0.00
2013-7-6,87,78,72,80,75,71,98,93,76,30.17,30.08,2,0,0,0.00
2013-7-7,89,80,71,79,75,70,98,87,69,30.14,30.04,1,0,0,0.00
2013-7-8,88,76,71,80,74,70,98,92,71,30.14,30.06,0,0,0,0.00
2013-7-9,90,79,72,80,75,71,98,88,69,30.14,30.04,1,0,0,0.00
2013-7-10,90,79,72,79,72,-100,98,82,61,30.09,29.92,1,0,0,0.00
2013-7-11,90,79,74,80,76,73,98,90,69,29.96,29.83,1,0,0,0.00
2013-7-12,79,76,73,77,74,72,98,97,93,29.91,29.82,0,0,0,0.00
2013-7-13,86,78,74,79,76,73,98,95,78,30.02,29.87,1,0,0,0.00
2013-7-14,87,78,74,80,76,73,98,92,73,30.16,30.01,2,0,0,0.00
2013-7-15,89,80,74,82,76,73,98,91,70,30.19,30.13,1,0,0,0.00
2013-7-16,90,81,74,81,76,73,98,87,67,30.22,30.14,1,0,0,0.00
2013-7-17,94,80,73,81,76,72,98,88,66,30.17,30.05,1,0,0,0.00
2013-7-18,86,81,76,80,76,74,95,88,81,30.08,30.01,0,0,0,0.00
2013-7-19,89,79,71,79,74,70,98,88,68,30.08,29.96,1,0,0,0.00
2013-7-20,87,78,74,80,74,-100,98,90,74,30.03,29.93,2,0,0,0.00
2013-7-21,86,77,72,80,75,71,98,93,79,30.00,29.89,1,0,0,0.00
2013-7-22,89,78,73,80,75,72,98,91,72,29.97,29.85,1,0,0,0.00
2013-7-23,89,80,75,79,76,73,97,88,71,29.89,29.75,1,0,0,0.00
2013-7-24,85,79,72,79,76,71,97,91,82,29.78,29.70,0,0,0,0.00
2013-7-25,91,81,72,80,76,71,98,86,66,29.92,29.72,1,0,0,0.00
2013-7-26,87,78,72,80,75,71,98,91,75,30.00,29.91,1,0,0,0.00
2013-7-27,87,80,73,80,77,72,98,91,78,29.99,29.85,1,0,0,0.00
2013-7-28,87,79,75,80,77,74,98,93,79,29.96,29.86,0,0,0,0.00
2013-7-29,92,77,73,81,75,72,98,94,65,30.10,29.95,1,0,0,0.00
2013-7-30,89,78,71,81,75,70,99,93,72,30.12,30.05,1,0,0,0.00
2013-7-31,88,77,74,80,75,73,98,95,76,30.07,29.98,0,0,0,0.00
2013-8-1,83,77,73,78,75,72,99,94,83,29.95,29.88,0,0,0,0.00
2013-8-2,89,82,73,81,78,72,98,89,77,29.98,29.89,1,0,0,0.00
2013-8-3,91,82,73,82,78,72,98,88,71,29.99,29.88,1,0,0,0.00
2013-8-4,91,82,75,81,77,74,98,87,69,29.93,29.83,1,0,0,0.00
2013-8-5,86,79,72,76,73,68,97,83,60,30.00,29.90,1,0,0,0.00
2013-8-6,87,77,68,76,72,67,98,86,67,29.99,29.90,1,0,0,0.00
2013-8-7,89,79,71,77,74,70,98,85,64,30.01,29.94,0,0,0,0.00
2013-8-8,91,78,71,80,75,70,98,91,69,30.01,29.95,0,0,0,0.00
2013-8-9,92,81,74,81,77,73,98,88,68,30.06,29.96,1,0,0,0.00
2013-8-10,93,83,73,82,77,72,98,85,68,30.08,30.01,1,0,0,0.00
2013-8-11,95,83,75,82,78,74,98,84,58,30.09,29.99,1,0,0,0.00
2013-8-18,90,76,71,79,71,-100,99,89,71,30.13,30.04,0,0,0,0.00
2013-8-19,87,71,74,81,54,-100,98,92,80,30.09,29.98,0,0,0,0.00
2013-8-20,89,76,73,81,72,-100,99,95,74,30.10,30.01,1,0,0,0.00
2013-8-21,88,58,72,81,30,-100,99,70,75,30.15,30.05,1,0,0,0.00
2013-8-22,80,27,74,78,-38,-100,98,34,88,30.09,29.96,0,0,0,0.00
2013-8-23,79,20,72,76,-54,-100,99,26,90,30.01,29.91,0,0,0,0.00
2013-8-24,-200,0,200,-100,-100,-100,0,0,100,30.20,29.99,0,0,0,0.00
2013-8-25,-200,0,200,-100,-100,-100,0,0,100,30.24,30.16,0,0,0,0.00
2013-8-26,88,14,71,74,-70,-100,87,13,58,30.22,30.07,0,0,0,0.00
2013-8-27,88,33,66,74,-26,-100,86,35,62,30.09,29.97,0,0,0,0.00
2013-8-28,92,85,75,78,75,71,86,73,61,29.96,29.89,0,0,0,0.00
2013-8-29,94,38,73,81,-21,-100,87,35,65,29.92,29.80,1,0,0,0.00
2013-8-30,90,23,76,79,-52,-100,86,22,69,29.94,29.85,1,0,0,0.00
2013-8-31,92,29,76,81,-39,-100,87,27,65,29.93,29.83,1,0,0,0.00
2013-9-1,95,27,78,81,-43,-100,86,24,63,29.89,29.78,1,0,0,0.00
2013-9-2,92,40,73,84,-13,-100,86,41,72,29.89,29.78,3,0,0,0.00
2013-9-3,94,63,72,82,35,-100,87,62,66,29.90,29.78,1,0,0,0.00
2013-9-4,97,74,71,83,60,-100,87,74,59,30.02,29.89,0,0,0,0.00
2013-9-5,92,60,74,82,29,-100,87,59,68,30.03,29.95,1,0,0,0.00
2013-10-2,88,70,58,68,62,57,99,80,42,30.09,30.00,1,0,0,0.00
2013-10-3,87,72,60,71,66,59,99,85,54,30.09,30.01,1,0,0,0.00
2013-10-4,89,75,65,75,68,64,100,82,48,30.09,30.00,2,0,0,0.00
2013-10-5,89,75,66,73,68,66,100,83,50,30.06,29.97,1,0,0,0.00
2013-10-6,89,76,67,77,72,66,100,90,62,30.00,29.86,1,0,0,0.00
2013-10-7,85,76,74,79,75,73,100,97,78,29.86,29.74,0,0,0,0.00
2013-10-8,74,67,61,74,64,59,100,93,87,30.02,29.77,3,1,0,0.00
2013-10-18,83,74,67,75,71,67,100,92,76,29.93,29.84,0,0,0,0.00
2013-10-19,84,75,70,75,71,64,100,90,71,29.90,29.80,0,0,0,0.00
2013-10-20,76,66,61,63,58,-100,92,78,62,30.01,29.86,1,0,0,0.00
2013-10-21,71,64,58,65,60,56,95,86,68,30.06,29.95,1,-15,0,0.00
2013-10-22,70,66,62,65,63,61,98,92,78,29.97,29.80,0,0,0,0.00
2013-10-23,75,65,56,64,55,42,100,73,36,29.96,29.72,3,0,0,0.00
2013-10-24,69,55,43,50,43,39,94,68,38,30.15,29.97,1,0,0,0.00
2013-10-25,64,55,45,48,43,39,95,67,43,30.30,30.11,2,1,0,0.00
2013-10-26,67,51,39,49,42,36,95,74,47,30.29,30.10,1,0,0,0.00
2013-10-27,74,56,41,59,47,-100,97,79,46,30.11,30.02,1,0,0,0.00
2013-10-28,75,60,54,64,55,-100,98,89,60,30.21,30.08,1,0,0,0.00
2013-10-29,80,63,51,63,57,51,99,84,51,30.28,30.18,1,0,0,0.00
2013-10-30,81,65,53,65,58,53,100,83,49,30.27,30.13,1,0,0,0.00